createdAt,value
2023-05-24T00:00:25.867Z,101690.38
2023-05-24T00:02:59.079Z,101695.94
2023-05-24T00:05:31.535Z,101693.53
2023-05-24T00:08:02.213Z,101697.25
2023-05-24T00:10:32.629Z,101701.28
2023-05-24T00:13:02.909Z,101696.88
2023-05-24T00:15:33.728Z,101698.63
2023-05-24T00:18:06.888Z,101698.34
2023-05-24T00:20:37.360Z,101700.22
2023-05-24T00:23:08.192Z,101708.81
2023-05-24T00:25:38.589Z,101708.38
2023-05-24T00:28:09.023Z,101706.13
2023-05-24T00:30:39.538Z,101696.41
2023-05-24T00:33:12.633Z,101691.59
2023-05-24T00:35:42.944Z,101696.19
2023-05-24T00:38:13.287Z,101695.31
2023-05-24T00:40:43.889Z,101694.59
2023-05-24T00:43:14.281Z,101695.63
2023-05-24T00:45:44.779Z,101695.19
2023-05-24T00:48:17.842Z,101687.06
2023-05-24T00:50:48.228Z,101682.94
2023-05-24T00:53:18.665Z,101683.38
2023-05-24T00:55:49.010Z,101692.53
2023-05-24T00:58:19.986Z,101683.69
2023-05-24T01:00:52.637Z,101675.69
2023-05-24T01:03:25.646Z,101681.25
2023-05-24T01:05:57.279Z,101680.41
2023-05-24T01:08:46.613Z,101689.84
2023-05-24T01:11:27.920Z,101681.72
2023-05-24T01:14:09.352Z,101692.53
2023-05-24T01:16:48.725Z,101687.25
2023-05-24T01:19:44.981Z,101684.56
2023-05-24T01:22:31.457Z,101688.56
2023-05-24T01:25:07.828Z,101693.28
2023-05-24T01:27:41.776Z,101689.13
2023-05-24T01:30:13.695Z,101682.72
2023-05-24T01:32:44.118Z,101683.97
2023-05-24T01:35:14.544Z,101691.41
2023-05-24T01:37:45.119Z,101690.38
2023-05-24T01:40:16.831Z,101686.13
2023-05-24T01:43:03.030Z,101688.97
2023-05-24T01:45:41.299Z,101687.69
2023-05-24T01:48:20.458Z,101676.84
2023-05-24T01:50:58.356Z,101679.44
2023-05-24T01:53:34.941Z,101685.84
2023-05-24T01:56:09.101Z,101675.16
2023-05-24T01:58:44.392Z,101675.59
2023-05-24T02:01:15.647Z,101679.75
2023-05-24T02:03:45.997Z,101682.59
2023-05-24T02:06:16.268Z,101682.59
2023-05-24T02:08:46.796Z,101685.59
2023-05-24T02:11:17.106Z,101688.59
2023-05-24T02:13:50.039Z,101686.28
2023-05-24T02:16:20.630Z,101680.88
2023-05-24T02:18:52.337Z,101690.28
2023-05-24T02:21:23.718Z,101693.88
2023-05-24T02:23:54.266Z,101693.13
2023-05-24T02:26:24.968Z,101692.41
2023-05-24T02:28:57.942Z,101696.28
2023-05-24T02:31:29.925Z,101694.84
2023-05-24T02:34:01.246Z,101697.56
2023-05-24T02:36:32.982Z,101693.28
2023-05-24T02:39:04.289Z,101697.97
2023-05-24T02:41:35.016Z,101686.41
2023-05-24T02:44:08.368Z,101689.44
2023-05-24T02:46:38.713Z,101687.56
2023-05-24T02:49:10.243Z,101688.56
2023-05-24T02:51:40.503Z,101695.13
2023-05-24T02:54:10.842Z,101686.56
2023-05-24T02:56:41.283Z,101691.38
2023-05-24T02:59:14.396Z,101680.00
2023-05-24T03:01:44.838Z,101683.69
2023-05-24T03:04:15.266Z,101679.44
2023-05-24T03:06:46.054Z,101681.56
2023-05-24T03:09:17.025Z,101678.28
2023-05-24T03:11:47.333Z,101678.28
2023-05-24T03:14:22.904Z,101684.84
2023-05-24T03:16:53.169Z,101684.66
2023-05-24T03:19:23.495Z,101671.44
2023-05-24T03:21:53.759Z,101681.69
2023-05-24T03:24:24.065Z,101687.50
2023-05-24T03:26:54.385Z,101685.94
2023-05-24T03:29:27.450Z,101680.66
2023-05-24T03:31:57.856Z,101674.41
2023-05-24T03:34:28.378Z,101677.38
2023-05-24T03:36:58.700Z,101673.81
2023-05-24T03:39:29.010Z,101672.50
2023-05-24T03:41:59.479Z,101676.75
2023-05-24T03:44:32.399Z,101666.78
2023-05-24T03:47:04.037Z,101667.66
2023-05-24T03:49:35.588Z,101668.66
2023-05-24T03:52:06.015Z,101671.47
2023-05-24T03:54:36.354Z,101672.50
2023-05-24T03:57:07.022Z,101671.78
2023-05-24T03:59:41.217Z,101676.19
2023-05-24T04:02:11.805Z,101679.47
2023-05-24T04:04:42.134Z,101679.59
2023-05-24T04:07:14.075Z,101677.91
2023-05-24T04:09:44.392Z,101674.78
2023-05-24T04:12:14.765Z,101672.78
2023-05-24T04:14:47.711Z,101678.19
2023-05-24T04:17:18.787Z,101686.88
2023-05-24T04:19:49.284Z,101684.75
2023-05-24T04:22:19.603Z,101683.50
2023-05-24T04:24:49.995Z,101691.59
2023-05-24T04:27:21.012Z,101691.59
2023-05-24T04:29:53.904Z,101684.22
2023-05-24T04:32:24.299Z,101687.66
2023-05-24T04:34:56.866Z,101683.09
2023-05-24T04:37:27.799Z,101679.38
2023-05-24T04:39:58.436Z,101681.94
2023-05-24T04:42:32.158Z,101687.09
2023-05-24T04:45:05.208Z,101694.19
2023-05-24T04:47:35.940Z,101689.38
2023-05-24T04:50:06.600Z,101690.97
2023-05-24T04:52:37.019Z,101687.97
2023-05-24T04:55:08.154Z,101692.97
2023-05-24T04:57:38.450Z,101692.09
2023-05-24T05:00:13.903Z,101689.38
2023-05-24T05:02:44.347Z,101693.25
2023-05-24T05:05:14.982Z,101698.53
2023-05-24T05:07:45.638Z,101695.69
2023-05-24T05:10:16.097Z,101685.44
2023-05-24T05:12:46.415Z,101692.00
2023-05-24T05:15:19.347Z,101698.84
2023-05-24T05:17:49.637Z,101690.72
2023-05-24T05:20:20.115Z,101697.81
2023-05-24T05:22:50.668Z,101698.28
2023-05-24T05:25:21.465Z,101700.97
2023-05-24T05:27:51.780Z,101701.44
2023-05-24T05:30:24.677Z,101707.53
2023-05-24T05:32:55.218Z,101702.94
2023-05-24T05:35:25.707Z,101703.78
2023-05-24T05:37:56.029Z,101700.28
2023-05-24T05:40:26.355Z,101701.19
2023-05-24T05:42:58.747Z,101698.25
2023-05-24T05:45:31.783Z,101704.19
2023-05-24T05:48:02.118Z,101693.84
2023-05-24T05:50:32.590Z,101701.84
2023-05-24T05:53:03.028Z,101713.63
2023-05-24T05:55:33.321Z,101713.31
2023-05-24T05:58:03.602Z,101709.47
2023-05-24T06:00:36.575Z,101711.25
2023-05-24T06:03:07.099Z,101712.88
2023-05-24T06:05:37.491Z,101702.88
2023-05-24T06:08:07.863Z,101705.75
2023-05-24T06:10:38.214Z,101702.88
2023-05-24T06:13:08.494Z,101703.09
2023-05-24T06:15:41.491Z,101693.78
2023-05-24T06:18:11.863Z,101704.50
2023-05-24T06:20:42.388Z,101707.53
2023-05-24T06:23:12.880Z,101706.28
2023-05-24T06:25:44.147Z,101710.50
2023-05-24T06:28:14.462Z,101712.66
2023-05-24T06:30:47.871Z,101705.47
2023-05-24T06:33:18.237Z,101708.47
2023-05-24T06:35:48.676Z,101698.31
2023-05-24T06:38:19.064Z,101696.84
2023-05-24T06:40:49.377Z,101699.97
2023-05-24T06:43:21.100Z,101708.72
2023-05-24T06:45:54.148Z,101707.72
2023-05-24T06:48:25.540Z,101713.44
2023-05-24T06:50:56.112Z,101716.84
2023-05-24T06:53:26.625Z,101721.38
2023-05-24T06:55:57.688Z,101713.44
2023-05-24T06:58:28.088Z,101716.34
2023-05-24T07:01:01.041Z,101715.97
2023-05-24T07:03:31.444Z,101725.72
2023-05-24T07:06:02.067Z,101730.88
2023-05-24T07:08:32.599Z,101719.91
2023-05-24T07:11:03.563Z,101721.03
2023-05-24T07:13:33.848Z,101722.19
2023-05-24T07:16:07.023Z,101721.22
2023-05-24T07:18:37.446Z,101717.66
2023-05-24T07:21:07.848Z,101723.25
2023-05-24T07:23:38.426Z,101727.41
2023-05-24T07:26:09.426Z,101727.75
2023-05-24T07:28:40.716Z,101728.25
2023-05-24T07:31:14.863Z,101730.44
2023-05-24T07:33:45.255Z,101741.25
2023-05-24T07:36:16.161Z,101729.47
2023-05-24T07:38:47.298Z,101731.63
2023-05-24T07:41:18.000Z,101735.84
2023-05-24T07:43:48.296Z,101731.50
2023-05-24T07:46:21.832Z,101733.75
2023-05-24T07:48:53.470Z,101738.78
2023-05-24T07:51:23.973Z,101739.59
2023-05-24T07:53:54.295Z,101733.47
2023-05-24T07:56:25.074Z,101728.66
2023-05-24T07:58:59.584Z,101737.03
2023-05-24T08:01:32.529Z,101731.72
2023-05-24T08:04:04.373Z,101722.22
2023-05-24T08:06:35.416Z,101723.25
2023-05-24T08:09:06.091Z,101727.59
2023-05-24T08:11:37.113Z,101728.63
2023-05-24T08:14:07.422Z,101734.81
2023-05-24T08:16:40.375Z,101739.56
2023-05-24T08:19:10.712Z,101737.59
2023-05-24T08:21:42.289Z,101738.28
2023-05-24T08:24:12.625Z,101731.28
2023-05-24T08:26:43.957Z,101745.41
2023-05-24T08:29:14.373Z,101734.59
2023-05-24T08:31:47.489Z,101729.91
2023-05-24T08:34:18.702Z,101733.25
2023-05-24T08:36:49.022Z,101731.84
2023-05-24T08:39:19.369Z,101726.31
2023-05-24T08:42:07.218Z,101724.78
2023-05-24T08:44:45.305Z,101729.81
2023-05-24T08:47:18.740Z,101728.78
2023-05-24T08:49:50.902Z,101737.66
2023-05-24T08:52:21.609Z,101732.38
2023-05-24T08:54:53.303Z,101725.66
2023-05-24T08:57:25.002Z,101725.75
2023-05-24T08:59:56.287Z,101735.31
2023-05-24T09:02:30.391Z,101727.59
2023-05-24T09:05:01.910Z,101733.56
2023-05-24T09:07:33.327Z,101731.25
2023-05-24T09:10:08.028Z,101727.72
2023-05-24T09:12:40.690Z,101737.97
2023-05-24T09:15:12.453Z,101724.31
2023-05-24T09:17:46.080Z,101723.50
2023-05-24T09:20:17.102Z,101718.47
2023-05-24T09:22:48.769Z,101717.47
2023-05-24T09:25:19.274Z,101700.19
2023-05-24T09:27:54.010Z,101698.78
2023-05-24T09:30:24.728Z,101703.88
2023-05-24T09:33:04.333Z,101701.19
2023-05-24T09:35:36.651Z,101700.94
2023-05-24T09:38:06.975Z,101699.66
2023-05-24T09:40:37.343Z,101707.91
2023-05-24T09:43:11.918Z,101702.41
2023-05-24T09:45:47.104Z,101707.47
2023-05-24T09:48:20.980Z,101705.81
2023-05-24T09:51:05.870Z,101703.97
2023-05-24T09:53:37.400Z,101703.31
2023-05-24T09:56:10.220Z,101701.47
2023-05-24T09:58:40.716Z,101696.19
2023-05-24T10:01:14.782Z,101691.75
2023-05-24T10:04:02.113Z,101688.78
2023-05-24T10:06:37.638Z,101688.38
2023-05-24T10:09:10.251Z,101691.31
2023-05-24T10:11:40.781Z,101686.28
2023-05-24T10:14:13.652Z,101684.59
2023-05-24T10:16:43.994Z,101681.19
2023-05-24T10:19:17.468Z,101674.44
2023-05-24T10:21:48.609Z,101672.09
2023-05-24T10:24:22.982Z,101669.78
2023-05-24T10:26:55.721Z,101675.69
2023-05-24T10:29:48.441Z,101674.03
2023-05-24T10:32:21.380Z,101678.88
2023-05-24T10:34:54.893Z,101670.41
2023-05-24T10:37:25.202Z,101682.44
2023-05-24T10:39:55.728Z,101677.56
2023-05-24T10:42:26.663Z,101675.47
2023-05-24T10:45:00.402Z,101688.59
2023-05-24T10:47:32.111Z,101672.50
2023-05-24T10:50:21.377Z,101671.88
2023-05-24T10:52:52.977Z,101673.31
2023-05-24T10:55:23.416Z,101681.16
2023-05-24T10:57:53.708Z,101671.88
2023-05-24T11:00:35.820Z,101668.06
2023-05-24T11:03:11.145Z,101679.31
2023-05-24T11:05:57.556Z,101675.03
2023-05-24T11:08:33.545Z,101676.97
2023-05-24T11:13:45.237Z,101683.72
2023-05-24T11:16:40.403Z,101676.09
2023-05-24T11:19:23.498Z,101678.22
2023-05-24T11:21:59.310Z,101683.72
2023-05-24T11:24:31.018Z,101680.78
2023-05-24T11:27:02.848Z,101682.69
2023-05-24T11:29:34.887Z,101680.78
2023-05-24T11:32:08.100Z,101677.41
2023-05-24T11:34:40.241Z,101680.34
2023-05-24T11:37:16.841Z,101687.56
2023-05-24T11:39:54.260Z,101680.97
2023-05-24T11:42:26.100Z,101675.91
2023-05-24T11:44:57.204Z,101677.41
2023-05-24T11:47:28.244Z,101681.66
2023-05-24T11:49:58.627Z,101678.66
2023-05-24T11:52:32.108Z,101677.84
2023-05-24T11:55:02.986Z,101678.44
2023-05-24T11:57:41.514Z,101681.22
2023-05-24T12:00:17.411Z,101689.47
2023-05-24T12:02:47.875Z,101686.28
2023-05-24T12:05:21.893Z,101689.69
2023-05-24T12:10:37.443Z,101681.44
2023-05-24T12:13:08.830Z,101675.06
2023-05-24T12:18:21.770Z,101676.78
2023-05-24T12:20:52.447Z,101675.06
2023-05-24T12:23:29.979Z,101668.06
2023-05-24T12:26:03.794Z,101676.53
2023-05-24T12:28:39.415Z,101677.38
2023-05-24T12:31:10.151Z,101678.88
2023-05-24T12:33:41.082Z,101681.00
2023-05-24T12:36:13.428Z,101671.03
2023-05-24T12:38:46.357Z,101682.47
2023-05-24T12:41:16.685Z,101673.13
2023-05-24T12:43:47.360Z,101678.22
2023-05-24T12:46:17.788Z,101669.75
2023-05-24T12:48:48.322Z,101674.84
2023-05-24T12:51:18.613Z,101676.50
2023-05-24T12:53:51.931Z,101674.78
2023-05-24T12:56:22.411Z,101679.66
2023-05-24T12:58:53.502Z,101680.34
2023-05-24T13:01:24.562Z,101690.88
2023-05-24T13:03:55.179Z,101685.34
2023-05-24T13:06:26.016Z,101689.63
2023-05-24T13:08:59.031Z,101685.19
2023-05-24T13:11:31.336Z,101684.56
2023-05-24T13:14:01.766Z,101691.34
2023-05-24T13:16:32.237Z,101688.78
2023-05-24T13:19:02.829Z,101696.66
2023-05-24T13:21:33.190Z,101686.25
2023-05-24T13:24:06.997Z,101693.28
2023-05-24T13:26:38.485Z,101691.38
2023-05-24T13:31:43.839Z,101693.47
2023-05-24T13:34:14.313Z,101693.69
2023-05-24T13:36:46.029Z,101703.47
2023-05-24T13:39:19.973Z,101694.53
2023-05-24T13:41:50.776Z,101692.19
2023-05-24T13:44:21.810Z,101695.19
2023-05-24T13:46:52.581Z,101695.59
2023-05-24T13:49:23.478Z,101690.31
2023-05-24T13:51:58.257Z,101699.81
2023-05-24T13:54:32.449Z,101705.16
2023-05-24T13:57:02.906Z,101704.47
2023-05-24T13:59:33.742Z,101700.25
2023-05-24T14:02:04.082Z,101697.72
2023-05-24T14:04:34.477Z,101692.00
2023-05-24T14:07:05.675Z,101690.53
2023-05-24T14:09:38.695Z,101692.44
2023-05-24T14:12:10.044Z,101675.91
2023-05-24T14:17:13.620Z,101688.59
2023-05-24T14:19:43.951Z,101686.50
2023-05-24T14:24:46.844Z,101689.47
2023-05-24T14:27:17.201Z,101674.22
2023-05-24T14:29:47.637Z,101675.69
2023-05-24T14:32:18.716Z,101677.16
2023-05-24T14:34:49.212Z,101673.13
2023-05-24T14:37:19.844Z,101667.22
2023-05-24T14:39:52.817Z,101676.50
2023-05-24T14:42:23.230Z,101681.41
2023-05-24T14:44:53.816Z,101677.41
2023-05-24T14:47:24.118Z,101681.19
2023-05-24T14:49:54.483Z,101673.56
2023-05-24T14:52:25.035Z,101675.69
2023-05-24T14:54:58.223Z,101678.66
2023-05-24T14:57:28.537Z,101674.84
2023-05-24T14:59:58.940Z,101674.84
2023-05-24T15:02:29.375Z,101687.16
2023-05-24T15:04:59.758Z,101678.47
2023-05-24T15:07:30.229Z,101689.25
2023-05-24T15:10:03.159Z,101689.88
2023-05-24T15:12:33.480Z,101682.91
2023-05-24T15:15:03.795Z,101676.13
2023-05-24T15:17:34.122Z,101684.59
2023-05-24T15:20:04.729Z,101680.78
2023-05-24T15:22:35.114Z,101678.00
2023-05-24T15:25:10.192Z,101684.97
2023-05-24T15:27:40.564Z,101679.47
2023-05-24T15:30:12.208Z,101680.94
2023-05-24T15:32:42.513Z,101686.66
2023-05-24T15:35:13.510Z,101671.41
2023-05-24T15:37:43.981Z,101680.22
2023-05-24T15:40:18.913Z,101677.47
2023-05-24T15:42:49.202Z,101673.88
2023-05-24T15:45:19.914Z,101674.31
2023-05-24T15:47:50.327Z,101681.50
2023-05-24T15:50:31.745Z,101689.94
2023-05-24T15:53:11.542Z,101690.28
2023-05-24T15:55:44.509Z,101680.13
2023-05-24T15:58:15.967Z,101683.69
2023-05-24T16:00:46.394Z,101692.72
2023-05-24T16:03:17.013Z,101683.84
2023-05-24T16:05:48.997Z,101683.84
2023-05-24T16:08:19.408Z,101691.34
2023-05-24T16:10:52.365Z,101692.03
2023-05-24T16:13:22.755Z,101687.16
2023-05-24T16:15:54.148Z,101680.81
2023-05-24T16:18:27.208Z,101691.81
2023-05-24T16:20:57.824Z,101681.47
2023-05-24T16:23:28.112Z,101695.88
2023-05-24T16:26:01.103Z,101691.47
2023-05-24T16:28:31.463Z,101691.28
2023-05-24T16:31:04.166Z,101692.53
2023-05-24T16:33:34.445Z,101683.84
2023-05-24T16:36:04.930Z,101683.75
2023-05-24T16:38:35.549Z,101688.88
2023-05-24T16:41:09.076Z,101701.13
2023-05-24T16:43:39.377Z,101699.16
2023-05-24T16:46:11.389Z,101696.59
2023-05-24T16:48:41.766Z,101698.44
2023-05-24T16:51:12.184Z,101693.34
2023-05-24T16:53:42.480Z,101699.50
2023-05-24T16:56:15.381Z,101696.84
2023-05-24T16:58:45.685Z,101699.28
2023-05-24T17:01:16.089Z,101700.97
2023-05-24T17:03:46.678Z,101704.94
2023-05-24T17:06:17.299Z,101705.72
2023-05-24T17:08:47.579Z,101707.81
2023-05-24T17:11:21.147Z,101701.78
2023-05-24T17:13:51.759Z,101702.53
2023-05-24T17:16:23.139Z,101714.75
2023-05-24T17:18:53.453Z,101720.00
2023-05-24T17:21:28.044Z,101712.19
2023-05-24T17:23:59.690Z,101709.63
2023-05-24T17:26:32.619Z,101698.78
2023-05-24T17:29:02.997Z,101717.69
2023-05-24T17:31:33.545Z,101720.91
2023-05-24T17:34:03.860Z,101712.81
2023-05-24T17:36:36.856Z,101709.78
2023-05-24T17:39:07.941Z,101717.34
2023-05-24T17:41:41.162Z,101724.69
2023-05-24T17:44:11.471Z,101724.22
2023-05-24T17:46:42.082Z,101733.03
2023-05-24T17:49:14.327Z,101739.19
2023-05-24T17:51:45.054Z,101738.63
2023-05-24T17:54:15.360Z,101735.66
2023-05-24T17:56:48.347Z,101733.97
2023-05-24T17:59:18.629Z,101744.16
2023-05-24T18:01:50.202Z,101741.41
2023-05-24T18:04:20.832Z,101751.97
2023-05-24T18:06:51.177Z,101758.94
2023-05-24T18:09:21.750Z,101752.88
2023-05-24T18:11:54.792Z,101746.13
2023-05-24T18:14:25.221Z,101740.38
2023-05-24T18:16:58.472Z,101745.84
2023-05-24T18:19:29.623Z,101738.56
2023-05-24T18:21:59.919Z,101738.16
2023-05-24T18:24:30.213Z,101742.81
2023-05-24T18:27:04.282Z,101750.66
2023-05-24T18:29:34.770Z,101745.34
2023-05-24T18:32:05.209Z,101747.03
2023-05-24T18:34:35.669Z,101750.69
2023-05-24T18:37:06.158Z,101745.97
2023-05-24T18:39:36.476Z,101745.59
2023-05-24T18:42:09.445Z,101752.00
2023-05-24T18:44:40.234Z,101752.56
2023-05-24T18:47:13.192Z,101750.56
2023-05-24T18:49:43.484Z,101745.09
2023-05-24T18:52:13.962Z,101741.03
2023-05-24T18:54:44.274Z,101743.44
2023-05-24T18:57:17.169Z,101746.72
2023-05-24T18:59:47.423Z,101745.22
2023-05-24T19:02:17.753Z,101739.41
2023-05-24T19:04:49.041Z,101739.03
2023-05-24T19:07:19.320Z,101743.16
2023-05-24T19:09:49.648Z,101743.16
2023-05-24T19:12:22.597Z,101737.03
2023-05-24T19:14:52.889Z,101742.81
2023-05-24T19:17:24.397Z,101741.47
2023-05-24T19:19:54.814Z,101742.66
2023-05-24T19:22:26.449Z,101746.28
2023-05-24T19:24:56.758Z,101750.03
2023-05-24T19:27:29.696Z,101742.16
2023-05-24T19:30:00.737Z,101741.72
2023-05-24T19:32:31.236Z,101743.25
2023-05-24T19:35:01.602Z,101741.88
2023-05-24T19:37:32.048Z,101735.63
2023-05-24T19:40:02.841Z,101740.22
2023-05-24T19:42:35.899Z,101735.13
2023-05-24T19:45:06.654Z,101729.66
2023-05-24T19:47:37.001Z,101739.94
2023-05-24T19:50:08.499Z,101750.16
2023-05-24T19:52:38.810Z,101742.34
2023-05-24T19:55:11.263Z,101748.19
2023-05-24T19:57:44.221Z,101743.91
2023-05-24T20:00:16.354Z,101755.34
2023-05-24T20:02:46.730Z,101749.56
2023-05-24T20:05:17.673Z,101761.50
2023-05-24T20:07:48.116Z,101759.13
2023-05-24T20:10:18.402Z,101752.13
2023-05-24T20:12:51.515Z,101758.75
2023-05-24T20:15:22.148Z,101773.78
2023-05-24T20:17:52.617Z,101773.94
2023-05-24T20:20:26.253Z,101770.88
2023-05-24T20:22:57.747Z,101774.44
2023-05-24T20:25:31.291Z,101778.03
2023-05-24T20:28:12.759Z,101781.97
2023-05-24T20:30:48.713Z,101781.28
2023-05-24T20:33:19.297Z,101781.25
2023-05-24T20:35:50.135Z,101786.19
2023-05-24T20:38:21.087Z,101783.66
2023-05-24T20:40:52.298Z,101778.00
2023-05-24T20:43:27.808Z,101787.22
2023-05-24T20:45:59.195Z,101788.22
2023-05-24T20:48:30.166Z,101793.31
2023-05-24T20:51:03.405Z,101790.75
2023-05-24T20:53:34.210Z,101784.28
2023-05-24T20:56:05.187Z,101783.09
2023-05-24T20:58:40.062Z,101788.69
2023-05-24T21:01:10.820Z,101791.25
2023-05-24T21:03:41.371Z,101785.59
2023-05-24T21:06:11.860Z,101802.81
2023-05-24T21:08:42.406Z,101806.03
2023-05-24T21:11:12.755Z,101798.88
2023-05-24T21:13:46.669Z,101808.91
2023-05-24T21:16:17.012Z,101796.81
2023-05-24T21:18:47.555Z,101802.59
2023-05-24T21:21:18.034Z,101807.34
2023-05-24T21:23:49.026Z,101809.72
2023-05-24T21:26:19.479Z,101808.84
2023-05-24T21:28:52.904Z,101807.16
2023-05-24T21:31:23.651Z,101812.06
2023-05-24T21:33:54.164Z,101804.75
2023-05-24T21:36:24.522Z,101805.94
2023-05-24T21:38:57.314Z,101811.91
2023-05-24T21:41:27.895Z,101814.09
2023-05-24T21:44:00.913Z,101817.44
2023-05-24T21:46:33.879Z,101803.13
2023-05-24T21:49:04.460Z,101819.47
2023-05-24T21:51:34.731Z,101823.91
2023-05-24T21:54:05.083Z,101822.66
2023-05-24T21:56:35.412Z,101822.44
2023-05-24T21:59:08.375Z,101821.06
2023-05-24T22:01:38.697Z,101822.13
2023-05-24T22:04:09.088Z,101832.63
2023-05-24T22:06:41.680Z,101831.94
2023-05-24T22:09:13.871Z,101830.56
2023-05-24T22:11:44.238Z,101828.34
2023-05-24T22:14:17.210Z,101832.06
2023-05-24T22:16:47.607Z,101836.13
2023-05-24T22:19:28.546Z,101831.53
2023-05-24T22:22:08.377Z,101841.03
2023-05-24T22:24:39.148Z,101842.38
2023-05-24T22:27:09.907Z,101839.81
2023-05-24T22:29:42.928Z,101830.25
2023-05-24T22:32:13.263Z,101841.28
2023-05-24T22:34:43.802Z,101853.19
2023-05-24T22:37:16.828Z,101851.47
2023-05-24T22:39:47.988Z,101859.94
2023-05-24T22:42:18.277Z,101858.41
2023-05-24T22:44:51.181Z,101859.56
2023-05-24T22:47:22.222Z,101857.03
2023-05-24T22:49:56.793Z,101861.28
2023-05-24T22:52:27.594Z,101864.31
2023-05-24T22:54:57.942Z,101869.06
2023-05-24T22:57:28.270Z,101871.09
2023-05-24T23:00:01.246Z,101869.00
2023-05-24T23:02:32.108Z,101871.03
2023-05-24T23:05:04.158Z,101876.47
2023-05-24T23:07:34.452Z,101874.03
2023-05-24T23:10:04.765Z,101877.63
2023-05-24T23:12:36.048Z,101871.81
2023-05-24T23:15:10.242Z,101881.84
2023-05-24T23:17:40.671Z,101874.38
2023-05-24T23:20:14.610Z,101873.34
2023-05-24T23:22:45.008Z,101874.38
2023-05-24T23:25:15.338Z,101863.69
2023-05-24T23:27:45.701Z,101870.72
2023-05-24T23:30:19.017Z,101865.97
2023-05-24T23:32:49.381Z,101867.38
2023-05-24T23:35:19.811Z,101871.22
2023-05-24T23:37:50.110Z,101872.09
2023-05-24T23:40:20.571Z,101869.00
2023-05-24T23:42:51.598Z,101878.00
2023-05-24T23:45:24.522Z,101875.75
2023-05-24T23:47:54.858Z,101870.78
2023-05-24T23:50:25.395Z,101875.66
2023-05-24T23:52:56.533Z,101867.00
2023-05-24T23:55:27.229Z,101873.91
2023-05-24T23:57:57.479Z,101872.19
